Time;durP1;ratioP1;P1;durP2;ratioP2;P2;SDS_P1;SDS_P2;PMS_P1;PMS_P2;Temp;Humidity;BMP_temperature;BMP_pressure;BME280_temperature;BME280_humidity;BME280_pressure;Samples;Min_cycle;Max_cycle;Signal;HPM_P1;HPM_P2
2023/05/05 00:02:21;;;;;;;27.83;17.75;;;11.80;99.90;;;;;;4915856;29;20032;-79
2023/05/05 00:04:47;;;;;;;24.85;17.83;;;11.80;99.90;;;;;;4916256;29;20035;-76
2023/05/05 00:07:13;;;;;;;26.10;17.30;;;11.80;99.90;;;;;;4915768;29;20028;-74
2023/05/05 00:09:40;;;;;;;27.27;18.17;;;11.80;99.90;;;;;;4915910;29;20038;-75
2023/05/05 00:12:06;;;;;;;26.80;17.55;;;11.70;99.90;;;;;;4915593;29;20036;-77
2023/05/05 00:14:32;;;;;;;25.08;18.17;;;11.70;99.90;;;;;;4916074;29;20123;-73
2023/05/05 00:16:59;;;;;;;26.50;17.55;;;11.70;99.90;;;;;;4915611;29;20028;-77
2023/05/05 00:19:25;;;;;;;26.80;18.42;;;11.80;99.90;;;;;;4916247;29;20494;-76
2023/05/05 00:21:51;;;;;;;26.63;16.85;;;11.80;99.90;;;;;;4915674;29;20103;-76
2023/05/05 00:24:17;;;;;;;20.65;14.07;;;11.80;99.90;;;;;;4915759;29;20468;-76
2023/05/05 00:26:43;;;;;;;22.45;15.20;;;11.80;99.90;;;;;;4919621;29;20063;-76
2023/05/05 00:29:09;;;;;;;26.50;17.38;;;11.70;99.90;;;;;;4902719;29;20040;-76
2023/05/05 00:31:36;;;;;;;25.92;16.88;;;11.70;99.90;;;;;;4920050;29;20067;-75
2023/05/05 00:34:02;;;;;;;26.20;16.73;;;11.60;99.90;;;;;;4919672;29;20036;-77
2023/05/05 00:36:29;;;;;;;27.17;18.45;;;11.60;99.90;;;;;;4919675;29;20597;-77
2023/05/05 00:38:55;;;;;;;27.35;18.08;;;11.60;99.90;;;;;;4919490;29;20111;-76
2023/05/05 00:41:21;;;;;;;25.30;17.90;;;11.40;99.90;;;;;;4919450;29;20137;-78
2023/05/05 00:43:46;;;;;;;31.25;19.50;;;11.20;99.90;;;;;;4919131;29;20043;-76
2023/05/05 00:46:19;;;;;;;26.98;19.70;;;11.20;99.90;;;;;;4919569;29;20024;-77
2023/05/05 00:48:45;;;;;;;;;;;11.20;99.90;;;;;;4902953;29;20047;-77
2023/05/05 00:51:14;;;;;;;24.80;17.27;;;11.20;99.90;;;;;;4919351;29;19907;-78
2023/05/05 00:53:43;;;;;;;28.70;19.50;;;11.30;99.90;;;;;;4902643;29;20420;-78
2023/05/05 00:56:18;;;;;;;29.33;20.17;;;11.30;99.90;;;;;;4919376;29;20016;-78
2023/05/05 00:58:44;;;;;;;26.63;19.50;;;11.30;99.90;;;;;;4902238;29;20123;-78
2023/05/05 01:01:10;;;;;;;26.60;17.95;;;11.20;99.90;;;;;;4902304;29;20107;-77
2023/05/05 01:03:38;;;;;;;25.73;17.50;;;11.30;99.90;;;;;;4919047;29;20055;-78
2023/05/05 01:06:15;;;;;;;23.95;17.33;;;11.30;99.90;;;;;;4919337;29;20024;-77
2023/05/05 01:09:16;;;;;;;27.52;19.05;;;11.30;99.90;;;;;;4918876;29;20028;-78
2023/05/05 01:11:58;;;;;;;28.48;19.27;;;11.20;99.90;;;;;;4918764;29;20107;-73
2023/05/05 01:14:56;;;;;;;27.30;19.00;;;11.20;99.90;;;;;;4919319;29;20039;-74
2023/05/05 01:17:39;;;;;;;25.30;17.73;;;11.20;99.90;;;;;;4907284;29;20036;-74
2023/05/05 01:20:20;;;;;;;29.15;19.85;;;11.20;99.90;;;;;;4918655;29;20024;-73
2023/05/05 01:22:52;;;;;;;27.40;19.02;;;11.30;99.90;;;;;;4918527;29;20373;-78
2023/05/05 01:25:29;;;;;;;25.63;16.88;;;11.30;99.90;;;;;;4918659;29;20424;-77
2023/05/05 01:28:10;;;;;;;25.38;16.98;;;11.30;99.90;;;;;;4918384;29;20036;-79
2023/05/05 01:31:05;;;;;;;20.45;15.43;;;11.30;99.90;;;;;;4918397;29;20040;-78
2023/05/05 01:33:40;;;;;;;28.52;18.52;;;11.20;99.90;;;;;;4918785;29;20455;-75
2023/05/05 01:36:18;;;;;;;24.50;15.65;;;11.10;99.90;;;;;;4917833;29;20111;-75
2023/05/05 01:38:45;;;;;;;23.40;15.82;;;11.00;99.90;;;;;;4901179;29;20060;-79
2023/05/05 01:41:18;;;;;;;25.98;18.27;;;10.90;99.90;;;;;;4918475;29;20035;-79
2023/05/05 01:43:49;;;;;;;24.73;17.23;;;10.80;99.90;;;;;;4917956;29;20040;-79
2023/05/05 01:46:16;;;;;;;24.75;17.58;;;10.80;99.90;;;;;;4918240;29;20029;-77
2023/05/05 01:48:43;;;;;;;25.08;17.52;;;10.90;99.90;;;;;;4900880;29;20048;-79
2023/05/05 01:51:10;;;;;;;25.27;17.58;;;10.90;99.90;;;;;;4918216;29;20038;-75
2023/05/05 01:53:38;;;;;;;24.05;16.95;;;10.80;99.90;;;;;;4918279;29;20028;-73
2023/05/05 01:56:05;;;;;;;23.70;16.20;;;10.80;99.90;;;;;;4918067;29;20106;-73
2023/05/05 01:58:32;;;;;;;22.10;16.23;;;10.80;99.90;;;;;;4900600;29;20062;-79
2023/05/05 02:01:02;;;;;;;23.85;16.92;;;10.80;99.90;;;;;;4901117;29;20084;-73
2023/05/05 02:03:30;;;;;;;24.98;16.88;;;10.80;99.90;;;;;;4917650;29;20028;-74
2023/05/05 02:05:59;;;;;;;21.35;14.77;;;10.80;99.90;;;;;;4918031;29;20540;-78
2023/05/05 02:08:27;;;;;;;24.02;16.17;;;10.80;99.90;;;;;;4900119;29;20161;-75
2023/05/05 02:10:54;;;;;;;21.80;14.52;;;10.90;99.90;;;;;;4901015;29;20036;-78
2023/05/05 02:13:22;;;;;;;24.45;16.17;;;10.90;99.90;;;;;;4917720;29;20020;-78
2023/05/05 02:15:49;;;;;;;21.38;15.25;;;10.90;99.90;;;;;;4901048;29;20055;-78
2023/05/05 02:18:16;;;;;;;24.58;16.85;;;10.90;99.90;;;;;;4900632;29;20383;-77
2023/05/05 02:20:42;;;;;;;23.92;17.30;;;10.80;99.90;;;;;;4917861;29;20024;-74
2023/05/05 02:23:09;;;;;;;32.78;22.10;;;10.90;99.90;;;;;;4884757;29;20036;-78
2023/05/05 02:25:41;;;;;;;30.05;20.83;;;10.90;99.90;;;;;;4917962;29;20020;-79
2023/05/05 02:28:41;;;;;;;26.77;18.05;;;10.90;99.90;;;;;;4917537;29;20028;-73
2023/05/05 02:31:08;;;;;;;24.33;17.33;;;11.00;99.90;;;;;;4917385;29;20043;-73
2023/05/05 02:33:36;;;;;;;26.85;17.88;;;11.00;99.90;;;;;;4900339;29;20059;-73
2023/05/05 02:36:13;;;;;;;26.85;17.83;;;11.00;99.90;;;;;;4917568;29;20441;-78
2023/05/05 02:38:53;;;;;;;26.50;17.15;;;11.00;99.90;;;;;;4900401;29;20133;-77
2023/05/05 02:41:21;;;;;;;23.48;17.48;;;10.90;99.90;;;;;;4900144;29;20497;-74
2023/05/05 02:43:49;;;;;;;26.63;16.55;;;10.90;99.90;;;;;;4899731;29;20484;-77
2023/05/05 02:46:17;;;;;;;25.83;17.73;;;10.90;99.90;;;;;;4899990;29;20039;-76
2023/05/05 02:48:45;;;;;;;29.00;18.23;;;10.80;99.90;;;;;;4900370;29;20027;-73
2023/05/05 02:51:14;;;;;;;25.02;16.27;;;10.80;99.90;;;;;;4900268;29;20044;-74
2023/05/05 02:53:40;;;;;;;24.85;16.65;;;10.80;99.90;;;;;;4899843;29;20035;-73
2023/05/05 02:56:25;;;;;;;22.63;15.13;;;10.80;99.90;;;;;;4900215;29;20075;-74
2023/05/05 02:59:07;;;;;;;24.55;16.63;;;10.80;99.90;;;;;;4901431;29;20028;-74
2023/05/05 03:02:06;;;;;;;30.13;18.67;;;10.70;99.90;;;;;;4896100;29;20369;-73
2023/05/05 03:04:54;;;;;;;25.48;17.83;;;10.60;99.90;;;;;;4900503;29;20123;-74
2023/05/05 03:07:26;;;;;;;27.15;18.15;;;10.60;99.90;;;;;;4901368;29;20039;-74
2023/05/05 03:10:09;;;;;;;30.45;18.70;;;10.60;99.90;;;;;;4901816;29;20064;-73
2023/05/05 03:12:53;;;;;;;32.15;19.05;;;10.60;99.90;;;;;;4895470;29;20036;-74
2023/05/05 03:15:46;;;;;;;26.85;17.70;;;10.70;99.90;;;;;;4902499;29;20032;-75
2023/05/05 03:18:16;;;;;;;37.47;19.63;;;10.70;99.90;;;;;;4902310;29;20028;-73
2023/05/05 03:20:47;;;;;;;32.25;18.00;;;10.70;99.90;;;;;;4887387;29;20036;-73
2023/05/05 03:23:19;;;;;;;27.42;17.00;;;10.80;99.90;;;;;;4902851;29;20103;-74
2023/05/05 03:25:48;;;;;;;24.88;17.27;;;10.70;99.90;;;;;;4902942;29;20044;-78
2023/05/05 03:28:33;;;;;;;27.90;16.75;;;10.70;99.90;;;;;;4891204;29;20043;-76
2023/05/05 03:31:04;;;;;;;24.42;16.55;;;10.70;99.90;;;;;;4902132;29;20028;-73
2023/05/05 03:33:33;;;;;;;24.70;16.75;;;10.70;99.90;;;;;;4903043;29;20051;-74
2023/05/05 03:35:59;;;;;;;26.35;16.55;;;10.70;99.90;;;;;;4902396;29;20028;-74
2023/05/05 03:38:25;;;;;;;24.60;16.83;;;10.70;99.90;;;;;;4901631;29;20039;-72
2023/05/05 03:40:52;;;;;;;24.15;16.95;;;10.80;99.90;;;;;;4902490;29;20035;-77
2023/05/05 03:43:20;;;;;;;24.00;16.70;;;11.00;99.90;;;;;;4901293;29;20380;-75
2023/05/05 03:45:46;;;;;;;27.40;18.45;;;11.20;99.90;;;;;;4882433;29;20051;-73
2023/05/05 03:48:13;;;;;;;23.90;16.30;;;11.50;99.90;;;;;;4880548;29;20123;-76
2023/05/05 03:50:43;;;;;;;27.70;18.23;;;11.80;99.90;;;;;;4880375;29;20037;-73
2023/05/05 03:53:09;;;;;;;31.73;18.10;;;12.10;99.90;;;;;;4880161;29;20033;-73
2023/05/05 03:55:35;;;;;;;29.80;17.92;;;12.40;99.90;;;;;;4878774;29;20127;-73
2023/05/05 03:58:01;;;;;;;29.45;18.48;;;12.90;99.90;;;;;;4880455;29;20028;-76
2023/05/05 04:00:27;;;;;;;26.52;16.30;;;13.20;99.90;;;;;;4896541;29;20025;-74
2023/05/05 04:02:53;;;;;;;28.77;17.95;;;13.40;99.90;;;;;;4880155;29;20389;-73
2023/05/05 04:05:21;;;;;;;25.27;17.38;;;13.80;99.90;;;;;;4879656;29;20032;-75
2023/05/05 04:07:48;;;;;;;35.40;17.77;;;13.90;99.90;;;;;;4880097;29;20092;-73
2023/05/05 04:10:15;;;;;;;32.22;16.25;;;14.20;99.90;;;;;;4879934;29;20099;-75
2023/05/05 04:12:41;;;;;;;27.38;17.50;;;14.50;99.90;;;;;;4880020;29;20032;-73
2023/05/05 04:15:07;;;;;;;33.65;16.52;;;15.00;99.90;;;;;;4879588;29;20024;-71
2023/05/05 04:17:35;;;;;;;25.73;15.68;;;15.50;99.90;;;;;;4879912;29;20528;-76
2023/05/05 04:20:01;;;;;;;34.60;16.00;;;16.00;99.90;;;;;;4879955;29;20087;-73
2023/05/05 04:22:29;;;;;;;29.15;15.90;;;16.30;99.90;;;;;;4879626;29;20035;-76
2023/05/05 04:24:56;;;;;;;24.48;16.63;;;16.60;99.90;;;;;;4879451;29;20040;-76
2023/05/05 04:27:21;;;;;;;28.52;16.67;;;17.20;99.90;;;;;;4879860;29;20373;-74
2023/05/05 04:29:48;;;;;;;39.88;17.80;;;17.30;99.90;;;;;;4879342;29;20051;-73
2023/05/05 04:32:14;;;;;;;24.20;16.58;;;18.00;99.90;;;;;;4879625;29;20025;-73
2023/05/05 04:34:40;;;;;;;38.83;21.38;;;18.30;98.90;;;;;;4878866;29;20393;-74
2023/05/05 04:37:06;;;;;;;35.00;20.02;;;18.30;98.70;;;;;;4879423;29;20055;-76
2023/05/05 04:39:33;;;;;;;36.78;27.13;;;18.90;99.10;;;;;;4879399;29;20064;-74
2023/05/05 04:42:01;;;;;;;35.45;25.20;;;19.20;98.00;;;;;;4879829;29;20029;-73
2023/05/05 04:44:27;;;;;;;26.95;16.05;;;19.60;97.20;;;;;;4886729;29;20051;-79
2023/05/05 04:46:53;;;;;;;28.30;17.08;;;19.30;97.70;;;;;;4917044;29;20553;-74
2023/05/05 04:49:19;;;;;;;24.63;16.38;;;19.50;98.30;;;;;;4897720;29;20040;-73
2023/05/05 04:51:45;;;;;;;29.10;19.20;;;20.00;98.20;;;;;;4898317;29;20038;-73
2023/05/05 04:54:11;;;;;;;24.77;18.75;;;20.50;96.50;;;;;;4914991;29;20115;-73
2023/05/05 04:56:37;;;;;;;26.15;17.38;;;20.40;95.90;;;;;;4898013;29;20115;-74
2023/05/05 04:59:03;;;;;;;23.83;16.38;;;20.50;97.70;;;;;;4915367;29;20103;-74
2023/05/05 05:01:29;;;;;;;27.98;18.17;;;20.60;96.10;;;;;;4898451;29;20032;-74
2023/05/05 05:03:55;;;;;;;26.20;18.50;;;19.60;96.40;;;;;;4897462;29;20035;-74
2023/05/05 05:06:21;;;;;;;29.00;18.38;;;19.20;98.10;;;;;;4914614;29;20016;-74
2023/05/05 05:08:46;;;;;;;25.25;18.20;;;18.90;98.90;;;;;;4914926;29;20025;-72
2023/05/05 05:11:13;;;;;;;24.15;16.88;;;18.50;99.70;;;;;;4899531;29;20492;-73
2023/05/05 05:13:38;;;;;;;25.27;17.80;;;18.30;99.90;;;;;;4903924;29;20040;-72
2023/05/05 05:16:05;;;;;;;25.25;17.75;;;18.20;99.90;;;;;;4898511;29;20035;-72
2023/05/05 05:18:31;;;;;;;27.65;17.35;;;17.70;99.90;;;;;;4899736;29;20040;-72
2023/05/05 05:20:57;;;;;;;24.33;16.65;;;17.50;99.90;;;;;;4904067;29;20039;-74
2023/05/05 05:23:23;;;;;;;26.55;17.83;;;17.50;99.90;;;;;;4902101;29;20032;-73
2023/05/05 05:25:49;;;;;;;36.47;17.98;;;17.50;99.90;;;;;;4901369;29;20120;-73
2023/05/05 05:28:18;;;;;;;27.38;18.65;;;17.60;99.90;;;;;;4901592;29;20047;-72
2023/05/05 05:30:51;;;;;;;26.75;17.95;;;17.70;99.90;;;;;;4901230;29;20119;-73
2023/05/05 05:33:17;;;;;;;28.65;18.13;;;17.80;99.90;;;;;;4901429;29;20124;-74
2023/05/05 05:35:44;;;;;;;23.67;18.15;;;17.90;99.90;;;;;;4900616;29;20043;-74
2023/05/05 05:38:11;;;;;;;27.92;18.35;;;18.00;99.90;;;;;;4916685;29;20432;-73
2023/05/05 05:40:37;;;;;;;26.65;19.63;;;18.10;99.90;;;;;;4908509;29;20481;-74
2023/05/05 05:43:03;;;;;;;26.27;21.20;;;18.00;99.90;;;;;;4882847;29;20044;-74
2023/05/05 05:45:29;;;;;;;28.95;21.60;;;18.10;99.90;;;;;;4894870;29;20063;-73
2023/05/05 05:47:55;;;;;;;27.58;20.38;;;18.20;99.90;;;;;;4918071;29;20380;-74
2023/05/05 05:50:21;;;;;;;33.20;21.20;;;18.20;99.90;;;;;;4900565;29;20048;-74
2023/05/05 05:52:47;;;;;;;29.65;22.25;;;18.30;99.90;;;;;;4894020;29;20054;-74
2023/05/05 05:55:14;;;;;;;29.67;21.33;;;18.40;99.90;;;;;;4908479;29;20488;-76
2023/05/05 05:57:40;;;;;;;31.08;22.17;;;18.30;99.90;;;;;;4917129;29;20060;-72
2023/05/05 06:00:09;;;;;;;34.85;25.88;;;18.20;99.90;;;;;;4900377;29;20030;-73
2023/05/05 06:02:37;;;;;;;33.38;26.60;;;18.40;99.90;;;;;;4917595;29;20040;-73
2023/05/05 06:05:05;;;;;;;36.50;25.85;;;18.50;99.90;;;;;;4899787;29;20477;-74
2023/05/05 06:07:31;;;;;;;28.60;21.90;;;18.70;99.90;;;;;;4900651;29;20079;-73
2023/05/05 06:09:56;;;;;;;32.92;21.63;;;18.80;99.90;;;;;;4899968;29;20040;-80
2023/05/05 06:12:22;;;;;;;23.77;19.23;;;18.70;99.90;;;;;;4916408;29;20380;-73
2023/05/05 06:14:48;;;;;;;31.90;20.65;;;19.00;99.90;;;;;;4917013;29;20078;-76
2023/05/05 06:17:14;;;;;;;30.70;19.48;;;19.10;99.90;;;;;;4898363;29;20040;-73
2023/05/05 06:19:41;;;;;;;25.50;19.42;;;19.20;99.90;;;;;;4894409;29;20456;-73
2023/05/05 06:22:07;;;;;;;32.72;21.75;;;19.10;99.90;;;;;;4900195;29;20028;-73
2023/05/05 06:24:34;;;;;;;26.95;21.40;;;19.10;99.90;;;;;;4900532;29;20028;-74
2023/05/05 06:27:01;;;;;;;27.67;19.67;;;18.80;99.90;;;;;;4898935;29;20443;-73
2023/05/05 06:29:27;;;;;;;24.27;17.20;;;19.00;99.90;;;;;;4905659;29;20105;-73
2023/05/05 06:31:54;;;;;;;23.13;16.90;;;18.90;99.90;;;;;;4917203;29;20029;-73
2023/05/05 06:34:20;;;;;;;24.00;15.80;;;18.70;99.90;;;;;;4917260;29;20024;-73
2023/05/05 06:36:46;;;;;;;21.17;15.52;;;18.50;99.90;;;;;;4917519;29;20051;-74
2023/05/05 06:39:12;;;;;;;24.05;16.35;;;18.40;99.90;;;;;;4917223;29;20111;-73
2023/05/05 06:41:38;;;;;;;19.67;14.20;;;18.60;99.90;;;;;;4917212;29;20473;-79
2023/05/05 06:44:04;;;;;;;24.88;15.73;;;18.80;99.90;;;;;;4916697;29;20048;-73
2023/05/05 06:46:30;;;;;;;23.63;15.80;;;18.90;99.90;;;;;;4916914;29;20035;-74
2023/05/05 06:48:58;;;;;;;20.25;14.73;;;19.20;99.90;;;;;;4916774;29;20044;-74
2023/05/05 06:51:25;;;;;;;21.85;15.45;;;19.20;99.90;;;;;;4899927;29;20380;-73
2023/05/05 06:53:51;;;;;;;21.80;15.43;;;19.30;99.90;;;;;;4916924;29;20036;-77
2023/05/05 06:56:18;;;;;;;26.50;16.33;;;19.60;99.90;;;;;;4899753;29;20473;-73
2023/05/05 06:58:44;;;;;;;23.02;15.30;;;19.50;99.90;;;;;;4916311;29;20111;-79
2023/05/05 07:01:10;;;;;;;32.97;14.52;;;19.40;99.90;;;;;;4916951;29;20342;-76
2023/05/05 07:03:36;;;;;;;24.00;16.27;;;19.80;99.90;;;;;;4916800;29;20112;-72
2023/05/05 07:06:02;;;;;;;19.73;12.85;;;19.90;99.90;;;;;;4916366;29;20039;-73
2023/05/05 07:08:28;;;;;;;19.15;12.57;;;20.00;99.90;;;;;;4916659;29;20024;-73
2023/05/05 07:10:54;;;;;;;18.17;12.13;;;20.30;99.90;;;;;;4916348;29;21309;-73
2023/05/05 07:13:20;;;;;;;18.25;12.55;;;20.20;99.90;;;;;;4916647;29;20020;-72
2023/05/05 07:15:45;;;;;;;17.98;11.77;;;20.10;99.90;;;;;;4916344;29;20047;-73
2023/05/05 07:18:12;;;;;;;16.50;11.82;;;20.40;99.90;;;;;;4916480;29;20056;-73
2023/05/05 07:20:39;;;;;;;18.67;12.70;;;20.30;99.90;;;;;;4916291;29;20036;-73
2023/05/05 07:23:04;;;;;;;19.70;12.38;;;20.20;99.90;;;;;;4916155;29;20016;-73
2023/05/05 07:25:31;;;;;;;18.33;11.63;;;20.10;99.90;;;;;;4916072;29;20066;-75
2023/05/05 07:27:57;;;;;;;16.55;10.80;;;20.10;99.90;;;;;;4915911;29;20462;-75
2023/05/05 07:30:25;;;;;;;20.25;13.73;;;20.30;99.90;;;;;;4912662;29;20477;-79
2023/05/05 07:32:51;;;;;;;23.25;11.95;;;20.50;99.90;;;;;;4907490;29;20108;-77
2023/05/05 07:35:17;;;;;;;20.58;11.90;;;20.60;99.90;;;;;;4906499;29;20107;-77
2023/05/05 07:37:44;;;;;;;19.27;13.40;;;20.70;99.90;;;;;;4902580;29;20456;-77
2023/05/05 07:40:11;;;;;;;21.83;13.73;;;20.90;99.90;;;;;;4916347;29;20079;-73
2023/05/05 07:42:37;;;;;;;23.25;15.02;;;20.90;99.90;;;;;;4916077;29;20064;-71
2023/05/05 07:45:04;;;;;;;26.90;17.08;;;21.00;99.90;;;;;;4916037;29;20484;-79
2023/05/05 07:47:30;;;;;;;18.75;13.68;;;20.50;99.90;;;;;;4916041;29;20064;-72
2023/05/05 07:49:56;;;;;;;25.30;16.10;;;21.00;99.90;;;;;;4915780;29;20064;-72
2023/05/05 07:52:22;;;;;;;20.70;14.95;;;21.00;99.90;;;;;;4916152;29;20031;-71
2023/05/05 07:54:48;;;;;;;19.45;11.60;;;21.20;99.90;;;;;;4914313;29;20028;-72
2023/05/05 07:57:15;;;;;;;18.15;12.57;;;21.00;99.90;;;;;;4915194;29;20032;-77
2023/05/05 07:59:42;;;;;;;16.50;12.40;;;21.40;99.90;;;;;;4915750;29;20028;-72
2023/05/05 08:02:12;;;;;;;16.95;11.88;;;21.90;99.50;;;;;;4903461;29;20040;-71
2023/05/05 08:04:39;;;;;;;16.15;10.88;;;21.80;98.80;;;;;;4915737;29;20115;-71
2023/05/05 08:07:04;;;;;;;20.25;11.23;;;21.60;99.80;;;;;;4902151;29;20605;-76
2023/05/05 08:09:34;;;;;;;16.38;11.80;;;21.60;99.90;;;;;;4896412;29;20127;-72
2023/05/05 08:12:03;;;;;;;16.20;11.20;;;21.30;99.90;;;;;;4898854;29;20028;-72
2023/05/05 08:14:30;;;;;;;16.75;11.88;;;21.90;99.20;;;;;;4898175;29;20080;-72
2023/05/05 08:16:56;;;;;;;15.38;10.40;;;22.10;99.90;;;;;;4900932;29;20377;-75
2023/05/05 08:19:23;;;;;;;18.45;11.02;;;22.10;99.50;;;;;;4895370;29;20032;-72
2023/05/05 08:21:49;;;;;;;17.58;11.48;;;22.00;99.90;;;;;;4895406;29;20025;-72
2023/05/05 08:24:15;;;;;;;16.63;11.57;;;22.30;99.80;;;;;;4900718;29;20048;-72
2023/05/05 08:26:41;;;;;;;16.42;11.65;;;21.60;98.20;;;;;;4904687;29;20484;-74
2023/05/05 08:29:07;;;;;;;20.60;11.18;;;21.60;99.90;;;;;;4906874;29;20055;-77
2023/05/05 08:31:35;;;;;;;15.57;10.63;;;22.20;99.90;;;;;;4911701;29;20068;-77
2023/05/05 08:34:03;;;;;;;17.05;11.40;;;22.30;99.90;;;;;;4896684;29;20052;-72
2023/05/05 08:36:29;;;;;;;16.23;10.30;;;22.50;99.60;;;;;;4910988;29;20034;-74
2023/05/05 08:38:54;;;;;;;18.73;11.90;;;22.50;99.90;;;;;;4915351;29;20032;-72
2023/05/05 08:41:20;;;;;;;16.65;10.90;;;22.50;99.30;;;;;;4915424;29;20057;-73
2023/05/05 08:43:48;;;;;;;20.63;11.07;;;22.60;99.90;;;;;;4915344;29;20481;-77
2023/05/05 08:46:14;;;;;;;16.73;10.32;;;22.60;99.90;;;;;;4917029;29;20480;-75
2023/05/05 08:48:42;;;;;;;15.20;10.63;;;22.60;99.90;;;;;;4919065;29;20024;-73
2023/05/05 08:51:12;;;;;;;15.90;9.63;;;22.60;99.90;;;;;;4919239;29;20035;-72
2023/05/05 08:53:54;;;;;;;15.57;10.95;;;22.40;99.90;;;;;;4909623;29;20060;-72
2023/05/05 08:56:20;;;;;;;16.07;8.93;;;22.30;99.00;;;;;;4906639;29;20032;-72
2023/05/05 08:58:47;;;;;;;19.58;9.10;;;21.90;99.90;;;;;;4900773;29;20489;-72
2023/05/05 09:01:14;;;;;;;15.63;8.55;;;22.00;99.90;;;;;;4900042;29;20465;-76
2023/05/05 09:03:43;;;;;;;13.80;8.80;;;22.30;99.90;;;;;;4900378;29;20076;-73
2023/05/05 09:06:10;;;;;;;14.38;9.25;;;22.70;99.90;;;;;;4908207;29;20068;-75
2023/05/05 09:08:36;;;;;;;15.80;9.65;;;22.80;99.90;;;;;;4919050;29;20028;-73
2023/05/05 09:11:02;;;;;;;14.88;8.98;;;22.40;99.90;;;;;;4908356;29;20042;-73
2023/05/05 09:13:30;;;;;;;12.35;6.80;;;22.70;99.40;;;;;;4911739;29;20441;-73
2023/05/05 09:15:57;;;;;;;12.23;7.70;;;22.90;97.40;;;;;;4908009;29;20064;-72
2023/05/05 09:18:23;;;;;;;11.38;7.47;;;23.20;97.70;;;;;;4913681;29;20446;-73
2023/05/05 09:20:49;;;;;;;13.43;7.38;;;23.20;99.00;;;;;;4899590;29;20033;-73
2023/05/05 09:23:19;;;;;;;22.65;7.00;;;23.40;98.40;;;;;;4904934;29;20075;-72
2023/05/05 09:25:47;;;;;;;12.60;7.50;;;23.10;98.30;;;;;;4918891;29;20047;-73
2023/05/05 09:28:14;;;;;;;14.15;8.52;;;22.50;97.10;;;;;;4918688;29;20127;-72
2023/05/05 09:30:44;;;;;;;12.40;7.72;;;22.70;98.60;;;;;;4918863;29;20076;-78
2023/05/05 09:33:11;;;;;;;10.50;6.90;;;22.40;97.90;;;;;;4918936;29;20032;-72
2023/05/05 09:35:51;;;;;;;8.70;5.95;;;22.60;96.90;;;;;;4901633;29;20521;-76
2023/05/05 09:38:18;;;;;;;8.73;5.78;;;22.70;95.70;;;;;;4918911;29;20047;-77
2023/05/05 09:40:46;;;;;;;11.63;6.15;;;23.10;97.60;;;;;;4918372;29;20091;-72
2023/05/05 09:43:12;;;;;;;10.70;6.43;;;23.00;96.50;;;;;;4901355;29;20033;-77
2023/05/05 09:45:38;;;;;;;8.02;5.05;;;22.90;95.60;;;;;;4918224;29;20052;-73
2023/05/05 09:48:07;;;;;;;10.90;6.65;;;23.10;95.50;;;;;;4918199;29;20028;-71
2023/05/05 09:50:43;;;;;;;11.35;6.03;;;23.10;97.60;;;;;;4918367;29;20041;-77
2023/05/05 09:53:09;;;;;;;9.40;5.60;;;23.40;97.00;;;;;;4918174;29;20392;-73
2023/05/05 09:55:36;;;;;;;9.27;5.05;;;23.40;96.60;;;;;;4918711;29;20020;-78
2023/05/05 09:58:18;;;;;;;10.57;6.55;;;23.90;97.60;;;;;;4917009;29;20032;-77
2023/05/05 10:00:45;;;;;;;14.77;6.33;;;24.00;96.20;;;;;;4917985;29;20464;-72
2023/05/05 10:03:11;;;;;;;16.10;8.82;;;24.20;96.90;;;;;;4918569;29;20758;-72
2023/05/05 10:05:54;;;;;;;10.10;6.07;;;23.80;94.60;;;;;;4918270;29;20060;-74
2023/05/05 10:08:25;;;;;;;10.75;6.03;;;24.10;94.40;;;;;;4919296;29;20047;-79
2023/05/05 10:10:58;;;;;;;12.50;6.18;;;23.00;95.90;;;;;;4917512;29;20035;-73
2023/05/05 10:13:24;;;;;;;10.32;6.63;;;23.10;96.90;;;;;;4918484;29;20373;-78
2023/05/05 10:15:55;;;;;;;11.68;7.00;;;23.00;96.10;;;;;;4918128;29;20029;-78
2023/05/05 10:18:25;;;;;;;8.68;6.15;;;22.70;96.30;;;;;;4901231;29;20047;-72
2023/05/05 10:20:57;;;;;;;14.15;6.13;;;22.50;95.90;;;;;;4919072;29;20476;-73
2023/05/05 10:23:31;;;;;;;9.20;5.67;;;22.40;95.80;;;;;;4918819;29;20024;-76
2023/05/05 10:26:09;;;;;;;10.30;6.07;;;22.30;95.80;;;;;;4917800;29;20035;-74
2023/05/05 10:28:44;;;;;;;11.07;6.20;;;22.60;96.60;;;;;;4905162;29;20040;-77
2023/05/05 10:31:19;;;;;;;9.70;5.95;;;22.90;95.80;;;;;;4916300;29;20361;-77
2023/05/05 10:34:07;;;;;;;10.50;5.70;;;22.80;96.70;;;;;;4916550;29;20028;-72
2023/05/05 10:36:35;;;;;;;7.53;5.13;;;22.50;95.30;;;;;;4907986;29;20032;-73
2023/05/05 10:39:01;;;;;;;8.60;5.35;;;21.90;95.00;;;;;;4916763;29;20022;-72
2023/05/05 10:41:30;;;;;;;8.63;5.10;;;21.90;95.30;;;;;;4917126;29;20034;-73
2023/05/05 10:43:58;;;;;;;10.63;5.18;;;22.10;95.80;;;;;;4893995;29;20049;-73
2023/05/05 10:46:26;;;;;;;9.90;5.03;;;22.00;95.60;;;;;;4909766;29;20028;-72
2023/05/05 10:49:19;;;;;;;12.93;5.15;;;21.80;96.20;;;;;;4916624;29;20043;-73
2023/05/05 10:51:55;;;;;;;;;;;21.80;95.60;;;;;;4917222;29;20028;-77
2023/05/05 10:54:48;;;;;;;10.32;5.47;;;22.00;95.30;;;;;;4916837;29;20051;-77
2023/05/05 10:57:17;;;;;;;8.93;5.47;;;21.90;96.00;;;;;;4840091;29;20041;-73
2023/05/05 10:59:43;;;;;;;8.82;4.82;;;22.00;95.90;;;;;;4839261;29;20490;-74
2023/05/05 11:02:28;;;;;;;13.88;7.38;;;22.10;96.00;;;;;;4837693;29;20054;-76
2023/05/05 11:05:16;;;;;;;10.27;5.90;;;22.50;97.00;;;;;;4837874;29;20045;-73
2023/05/05 11:07:48;;;;;;;9.68;5.00;;;22.90;95.50;;;;;;4835202;29;20042;-77
2023/05/05 11:10:22;;;;;;;8.43;5.03;;;22.80;94.70;;;;;;4831680;29;20757;-73
2023/05/05 11:12:51;;;;;;;8.40;5.47;;;22.70;96.70;;;;;;4838894;29;20135;-73
2023/05/05 11:15:26;;;;;;;9.85;6.43;;;22.50;94.80;;;;;;4839374;29;20048;-75
2023/05/05 11:17:53;;;;;;;8.70;5.28;;;22.60;95.70;;;;;;4832465;29;20586;-73
2023/05/05 11:20:35;;;;;;;8.55;5.95;;;22.70;97.00;;;;;;4827858;29;20419;-72
2023/05/05 11:23:03;;;;;;;13.00;7.00;;;22.90;96.70;;;;;;4835310;29;20111;-73
2023/05/05 11:25:35;;;;;;;11.77;6.63;;;23.30;97.10;;;;;;4831904;29;20400;-73
2023/05/05 11:28:09;;;;;;;;;;;23.50;96.10;;;;;;4840135;29;20476;-73
2023/05/05 11:30:55;;;;;;;10.63;5.68;;;23.30;94.00;;;;;;4839554;29;19921;-77
2023/05/05 11:33:36;;;;;;;9.45;6.18;;;23.50;96.20;;;;;;4849256;29;20029;-77
2023/05/05 11:36:12;;;;;;;12.63;6.97;;;23.70;95.70;;;;;;4911291;29;20115;-73
2023/05/05 11:38:38;;;;;;;13.85;6.28;;;24.10;96.50;;;;;;4916010;29;20111;-71
2023/05/05 11:41:11;;;;;;;9.45;5.68;;;24.10;95.00;;;;;;4916271;29;20030;-76
2023/05/05 11:43:38;;;;;;;8.65;5.53;;;23.80;93.90;;;;;;4898471;29;20055;-75
2023/05/05 11:46:11;;;;;;;11.77;5.80;;;23.70;93.60;;;;;;4915768;29;20024;-79
2023/05/05 11:48:52;;;;;;;8.13;4.80;;;23.30;93.50;;;;;;4914576;29;20040;-75
2023/05/05 11:51:18;;;;;;;9.20;4.75;;;23.00;93.90;;;;;;4915518;29;20032;-70
2023/05/05 11:53:46;;;;;;;7.78;4.72;;;22.70;93.20;;;;;;4916028;29;20499;-71
2023/05/05 11:56:17;;;;;;;9.23;5.03;;;22.90;92.70;;;;;;4916149;29;20038;-74
2023/05/05 11:58:44;;;;;;;7.25;4.38;;;23.10;93.30;;;;;;4916159;29;20373;-77
2023/05/05 12:01:11;;;;;;;6.97;4.88;;;23.40;95.50;;;;;;4916058;29;20150;-73
2023/05/05 12:03:39;;;;;;;7.45;4.82;;;23.40;93.50;;;;;;4909997;29;20047;-72
2023/05/05 12:06:06;;;;;;;9.35;4.40;;;23.50;93.60;;;;;;4907812;29;20024;-73
2023/05/05 12:08:39;;;;;;;6.82;3.78;;;23.50;93.20;;;;;;4914580;29;20030;-73
2023/05/05 12:11:10;;;;;;;9.75;4.75;;;23.40;93.20;;;;;;4914992;29;20040;-72
2023/05/05 12:13:35;;;;;;;8.25;5.32;;;23.30;94.20;;;;;;4915691;29;20036;-76
2023/05/05 12:16:08;;;;;;;10.80;5.40;;;23.00;94.60;;;;;;4915803;29;20035;-73
2023/05/05 12:18:34;;;;;;;8.80;6.05;;;22.80;94.10;;;;;;4915666;29;20472;-77
2023/05/05 12:21:00;;;;;;;8.20;5.07;;;22.60;94.60;;;;;;4915036;29;20048;-73
2023/05/05 12:23:28;;;;;;;8.65;5.45;;;22.60;93.30;;;;;;4915722;29;20024;-70
2023/05/05 12:25:55;;;;;;;13.57;9.57;;;22.80;93.20;;;;;;4915730;29;20025;-71
2023/05/05 12:28:21;;;;;;;10.45;6.10;;;23.00;93.90;;;;;;4915614;29;20032;-75
2023/05/05 12:30:57;;;;;;;11.75;5.25;;;23.40;94.80;;;;;;4915190;29;20032;-77
2023/05/05 12:33:23;;;;;;;10.77;5.40;;;23.70;95.10;;;;;;4915548;29;20025;-72
2023/05/05 12:35:49;;;;;;;6.88;4.25;;;23.90;94.00;;;;;;4915603;29;20488;-74
2023/05/05 12:38:15;;;;;;;8.02;4.82;;;24.10;94.60;;;;;;4915229;29;20615;-71
2023/05/05 12:40:50;;;;;;;7.85;4.80;;;24.40;94.40;;;;;;4915679;29;20021;-71
2023/05/05 12:43:34;;;;;;;7.82;4.78;;;24.50;93.20;;;;;;4915574;29;20111;-76
2023/05/05 12:46:11;;;;;;;7.15;4.55;;;24.70;94.40;;;;;;4918615;29;20059;-71